sensor_id;sensor_type;location;lat;lon;timestamp;pressure;altitude;pressure_sealevel;temperature;humidity
21129;BME280;10722;51.910;8.352;2023-05-15T00:01:23;100636.22;;;11.47;100.00
21129;BME280;10722;51.910;8.352;2023-05-15T00:04:11;100633.34;;;11.24;100.00
21129;BME280;10722;51.910;8.352;2023-05-15T00:06:56;100640.38;;;11.37;100.00
21129;BME280;10722;51.910;8.352;2023-05-15T00:09:41;100633.53;;;11.40;100.00
21129;BME280;10722;51.910;8.352;2023-05-15T00:12:27;100638.44;;;11.20;100.00
21129;BME280;10722;51.910;8.352;2023-05-15T00:15:12;100635.16;;;11.32;100.00
21129;BME280;10722;51.910;8.352;2023-05-15T00:17:57;100627.25;;;11.23;100.00
21129;BME280;10722;51.910;8.352;2023-05-15T00:20:42;100622.09;;;11.26;100.00
21129;BME280;10722;51.910;8.352;2023-05-15T00:23:27;100616.13;;;11.32;100.00
21129;BME280;10722;51.910;8.352;2023-05-15T00:26:12;100616.22;;;11.36;100.00
21129;BME280;10722;51.910;8.352;2023-05-15T00:28:57;100617.16;;;11.41;100.00
21129;BME280;10722;51.910;8.352;2023-05-15T00:31:42;100607.88;;;11.62;100.00
21129;BME280;10722;51.910;8.352;2023-05-15T00:34:27;100598.34;;;11.58;100.00
21129;BME280;10722;51.910;8.352;2023-05-15T00:37:12;100594.78;;;11.50;100.00
21129;BME280;10722;51.910;8.352;2023-05-15T00:39:58;100593.63;;;11.25;100.00
21129;BME280;10722;51.910;8.352;2023-05-15T00:42:43;100602.31;;;11.31;100.00
21129;BME280;10722;51.910;8.352;2023-05-15T00:45:30;100605.56;;;11.13;100.00
21129;BME280;10722;51.910;8.352;2023-05-15T00:48:15;100607.91;;;10.96;100.00
21129;BME280;10722;51.910;8.352;2023-05-15T00:51:01;100602.91;;;11.07;100.00
21129;BME280;10722;51.910;8.352;2023-05-15T00:53:46;100602.16;;;11.17;100.00
21129;BME280;10722;51.910;8.352;2023-05-15T00:56:33;100603.13;;;11.24;100.00
21129;BME280;10722;51.910;8.352;2023-05-15T00:59:19;100597.06;;;11.24;100.00
21129;BME280;10722;51.910;8.352;2023-05-15T01:02:06;100594.53;;;11.27;100.00
21129;BME280;10722;51.910;8.352;2023-05-15T01:04:51;100577.88;;;11.09;100.00
21129;BME280;10722;51.910;8.352;2023-05-15T01:07:50;100594.63;;;10.70;100.00
21129;BME280;10722;51.910;8.352;2023-05-15T01:10:36;100603.97;;;10.62;100.00
21129;BME280;10722;51.910;8.352;2023-05-15T01:13:22;100598.06;;;10.72;100.00
21129;BME280;10722;51.910;8.352;2023-05-15T01:16:08;100606.56;;;10.62;100.00
21129;BME280;10722;51.910;8.352;2023-05-15T01:18:53;100603.78;;;10.51;100.00
21129;BME280;10722;51.910;8.352;2023-05-15T01:28:07;100606.25;;;10.44;100.00
21129;BME280;10722;51.910;8.352;2023-05-15T01:30:54;100600.72;;;10.22;100.00
21129;BME280;10722;51.910;8.352;2023-05-15T01:33:42;100606.00;;;10.28;100.00
21129;BME280;10722;51.910;8.352;2023-05-15T01:39:20;100598.84;;;10.15;100.00
21129;BME280;10722;51.910;8.352;2023-05-15T01:42:08;100591.25;;;10.23;100.00
21129;BME280;10722;51.910;8.352;2023-05-15T01:44:54;100592.78;;;10.13;100.00
21129;BME280;10722;51.910;8.352;2023-05-15T01:47:45;100593.53;;;10.07;100.00
21129;BME280;10722;51.910;8.352;2023-05-15T01:50:31;100593.47;;;10.03;100.00
21129;BME280;10722;51.910;8.352;2023-05-15T01:53:19;100594.72;;;10.25;100.00
21129;BME280;10722;51.910;8.352;2023-05-15T01:56:05;100592.06;;;10.20;100.00
21129;BME280;10722;51.910;8.352;2023-05-15T01:58:51;100597.16;;;10.17;100.00
21129;BME280;10722;51.910;8.352;2023-05-15T02:01:38;100587.75;;;10.21;100.00
21129;BME280;10722;51.910;8.352;2023-05-15T02:04:26;100576.91;;;9.92;100.00
21129;BME280;10722;51.910;8.352;2023-05-15T02:07:12;100585.53;;;9.94;100.00
21129;BME280;10722;51.910;8.352;2023-05-15T02:09:58;100578.13;;;10.12;100.00
21129;BME280;10722;51.910;8.352;2023-05-15T02:12:46;100580.66;;;10.09;100.00
21129;BME280;10722;51.910;8.352;2023-05-15T02:15:31;100569.78;;;9.78;100.00
21129;BME280;10722;51.910;8.352;2023-05-15T02:18:17;100563.69;;;9.75;100.00
21129;BME280;10722;51.910;8.352;2023-05-15T02:21:02;100574.13;;;9.81;100.00
21129;BME280;10722;51.910;8.352;2023-05-15T02:23:47;100581.97;;;9.85;100.00
21129;BME280;10722;51.910;8.352;2023-05-15T02:33:18;100580.56;;;10.04;100.00
21129;BME280;10722;51.910;8.352;2023-05-15T02:36:08;100572.03;;;10.10;100.00
21129;BME280;10722;51.910;8.352;2023-05-15T02:38:56;100569.31;;;10.01;100.00
21129;BME280;10722;51.910;8.352;2023-05-15T02:41:43;100569.25;;;9.98;100.00
21129;BME280;10722;51.910;8.352;2023-05-15T02:44:30;100565.09;;;10.07;100.00
21129;BME280;10722;51.910;8.352;2023-05-15T02:47:17;100564.47;;;10.21;100.00
21129;BME280;10722;51.910;8.352;2023-05-15T02:50:04;100556.59;;;10.13;100.00
21129;BME280;10722;51.910;8.352;2023-05-15T02:52:49;100552.81;;;9.93;100.00
21129;BME280;10722;51.910;8.352;2023-05-15T02:55:35;100554.53;;;9.92;100.00
21129;BME280;10722;51.910;8.352;2023-05-15T02:58:20;100554.47;;;9.89;100.00
21129;BME280;10722;51.910;8.352;2023-05-15T03:01:06;100556.03;;;9.81;100.00
21129;BME280;10722;51.910;8.352;2023-05-15T03:03:51;100553.47;;;9.82;100.00
21129;BME280;10722;51.910;8.352;2023-05-15T03:06:36;100560.44;;;9.86;100.00
21129;BME280;10722;51.910;8.352;2023-05-15T03:09:22;100554.81;;;9.62;100.00
21129;BME280;10722;51.910;8.352;2023-05-15T03:12:07;100549.66;;;9.60;100.00
21129;BME280;10722;51.910;8.352;2023-05-15T03:14:52;100553.75;;;9.49;100.00
21129;BME280;10722;51.910;8.352;2023-05-15T03:17:38;100548.44;;;9.43;100.00
21129;BME280;10722;51.910;8.352;2023-05-15T03:20:24;100548.53;;;9.46;100.00
21129;BME280;10722;51.910;8.352;2023-05-15T03:23:09;100538.03;;;9.38;100.00
21129;BME280;10722;51.910;8.352;2023-05-15T03:25:54;100550.25;;;9.49;100.00
21129;BME280;10722;51.910;8.352;2023-05-15T03:28:39;100551.28;;;9.55;100.00
21129;BME280;10722;51.910;8.352;2023-05-15T03:31:26;100545.38;;;9.62;100.00
21129;BME280;10722;51.910;8.352;2023-05-15T03:34:11;100545.41;;;9.20;100.00
21129;BME280;10722;51.910;8.352;2023-05-15T03:36:57;100546.47;;;9.30;100.00
21129;BME280;10722;51.910;8.352;2023-05-15T03:39:42;100545.03;;;9.44;100.00
21129;BME280;10722;51.910;8.352;2023-05-15T03:42:27;100547.78;;;9.52;100.00
21129;BME280;10722;51.910;8.352;2023-05-15T03:45:12;100550.69;;;9.26;100.00
21129;BME280;10722;51.910;8.352;2023-05-15T03:47:57;100545.28;;;9.14;100.00
21129;BME280;10722;51.910;8.352;2023-05-15T03:50:44;100552.59;;;9.35;100.00
21129;BME280;10722;51.910;8.352;2023-05-15T03:53:29;100556.97;;;9.39;100.00
21129;BME280;10722;51.910;8.352;2023-05-15T03:56:14;100546.59;;;9.37;100.00
21129;BME280;10722;51.910;8.352;2023-05-15T03:58:59;100543.59;;;9.58;100.00
21129;BME280;10722;51.910;8.352;2023-05-15T04:01:44;100534.09;;;9.57;100.00
21129;BME280;10722;51.910;8.352;2023-05-15T04:04:48;100536.25;;;9.36;100.00
21129;BME280;10722;51.910;8.352;2023-05-15T04:07:35;100540.22;;;9.18;100.00
21129;BME280;10722;51.910;8.352;2023-05-15T04:10:20;100549.69;;;9.19;100.00
21129;BME280;10722;51.910;8.352;2023-05-15T04:13:05;100540.56;;;9.35;100.00
21129;BME280;10722;51.910;8.352;2023-05-15T04:15:51;100544.34;;;9.53;100.00
21129;BME280;10722;51.910;8.352;2023-05-15T04:18:36;100540.25;;;9.65;100.00
21129;BME280;10722;51.910;8.352;2023-05-15T04:21:21;100544.50;;;9.60;100.00
21129;BME280;10722;51.910;8.352;2023-05-15T04:24:07;100552.84;;;9.49;100.00
21129;BME280;10722;51.910;8.352;2023-05-15T04:26:52;100551.19;;;9.51;100.00
21129;BME280;10722;51.910;8.352;2023-05-15T04:29:38;100550.31;;;9.50;100.00
21129;BME280;10722;51.910;8.352;2023-05-15T04:32:23;100558.88;;;9.48;100.00
21129;BME280;10722;51.910;8.352;2023-05-15T04:35:09;100560.69;;;9.53;100.00
21129;BME280;10722;51.910;8.352;2023-05-15T04:37:54;100564.41;;;9.66;100.00
21129;BME280;10722;51.910;8.352;2023-05-15T04:40:40;100558.78;;;9.88;100.00
21129;BME280;10722;51.910;8.352;2023-05-15T04:43:25;100555.44;;;9.96;100.00
21129;BME280;10722;51.910;8.352;2023-05-15T04:46:10;100563.13;;;9.93;100.00
21129;BME280;10722;51.910;8.352;2023-05-15T04:48:55;100563.28;;;10.00;100.00
21129;BME280;10722;51.910;8.352;2023-05-15T04:51:41;100564.38;;;10.16;100.00
21129;BME280;10722;51.910;8.352;2023-05-15T04:54:26;100568.78;;;10.20;100.00
21129;BME280;10722;51.910;8.352;2023-05-15T04:57:11;100561.59;;;10.02;100.00
21129;BME280;10722;51.910;8.352;2023-05-15T04:59:56;100559.22;;;10.15;100.00
21129;BME280;10722;51.910;8.352;2023-05-15T05:02:41;100564.72;;;10.35;100.00
21129;BME280;10722;51.910;8.352;2023-05-15T05:05:27;100562.03;;;10.27;100.00
21129;BME280;10722;51.910;8.352;2023-05-15T05:08:12;100559.69;;;10.44;100.00
21129;BME280;10722;51.910;8.352;2023-05-15T05:10:57;100557.41;;;10.62;100.00
21129;BME280;10722;51.910;8.352;2023-05-15T05:13:42;100560.19;;;10.77;100.00
21129;BME280;10722;51.910;8.352;2023-05-15T05:16:28;100556.00;;;10.84;100.00
21129;BME280;10722;51.910;8.352;2023-05-15T05:19:13;100544.00;;;10.91;100.00
21129;BME280;10722;51.910;8.352;2023-05-15T05:21:59;100546.59;;;10.92;100.00
21129;BME280;10722;51.910;8.352;2023-05-15T05:24:44;100549.84;;;10.77;100.00
21129;BME280;10722;51.910;8.352;2023-05-15T05:27:30;100552.28;;;10.67;100.00
21129;BME280;10722;51.910;8.352;2023-05-15T05:30:14;100566.16;;;10.72;100.00
21129;BME280;10722;51.910;8.352;2023-05-15T05:32:59;100562.97;;;10.91;100.00
21129;BME280;10722;51.910;8.352;2023-05-15T05:35:45;100565.50;;;10.87;100.00
21129;BME280;10722;51.910;8.352;2023-05-15T05:38:31;100561.31;;;10.96;100.00
21129;BME280;10722;51.910;8.352;2023-05-15T05:41:16;100558.75;;;10.98;100.00
21129;BME280;10722;51.910;8.352;2023-05-15T05:44:02;100557.16;;;11.09;100.00
21129;BME280;10722;51.910;8.352;2023-05-15T05:46:47;100546.06;;;11.18;100.00
21129;BME280;10722;51.910;8.352;2023-05-15T05:49:33;100562.66;;;11.32;100.00
21129;BME280;10722;51.910;8.352;2023-05-15T05:52:18;100556.56;;;11.30;100.00
21129;BME280;10722;51.910;8.352;2023-05-15T05:55:04;100553.13;;;11.30;100.00
21129;BME280;10722;51.910;8.352;2023-05-15T05:57:49;100553.19;;;11.36;100.00
21129;BME280;10722;51.910;8.352;2023-05-15T06:00:35;100541.22;;;11.49;100.00
21129;BME280;10722;51.910;8.352;2023-05-15T06:03:20;100539.78;;;11.75;100.00
21129;BME280;10722;51.910;8.352;2023-05-15T06:06:06;100538.25;;;11.91;100.00
21129;BME280;10722;51.910;8.352;2023-05-15T06:08:51;100532.28;;;12.04;100.00
21129;BME280;10722;51.910;8.352;2023-05-15T06:11:40;100512.56;;;12.23;100.00
21129;BME280;10722;51.910;8.352;2023-05-15T06:14:25;100510.03;;;12.31;100.00
21129;BME280;10722;51.910;8.352;2023-05-15T06:17:11;100509.16;;;12.32;100.00
21129;BME280;10722;51.910;8.352;2023-05-15T06:19:56;100512.84;;;12.62;100.00
21129;BME280;10722;51.910;8.352;2023-05-15T06:22:41;100495.63;;;12.85;100.00
21129;BME280;10722;51.910;8.352;2023-05-15T06:25:26;100489.56;;;12.80;100.00
21129;BME280;10722;51.910;8.352;2023-05-15T06:28:12;100479.19;;;12.83;100.00
21129;BME280;10722;51.910;8.352;2023-05-15T06:30:57;100473.28;;;13.24;100.00
21129;BME280;10722;51.910;8.352;2023-05-15T06:33:42;100477.66;;;13.34;100.00
21129;BME280;10722;51.910;8.352;2023-05-15T06:36:27;100478.56;;;13.64;100.00
21129;BME280;10722;51.910;8.352;2023-05-15T06:39:12;100469.03;;;13.58;100.00
21129;BME280;10722;51.910;8.352;2023-05-15T06:41:58;100458.56;;;13.24;100.00
21129;BME280;10722;51.910;8.352;2023-05-15T06:44:43;100479.41;;;13.43;100.00
21129;BME280;10722;51.910;8.352;2023-05-15T06:47:29;100471.66;;;13.78;100.00
21129;BME280;10722;51.910;8.352;2023-05-15T06:50:14;100472.50;;;13.65;100.00
21129;BME280;10722;51.910;8.352;2023-05-15T06:52:59;100482.91;;;13.99;99.91
21129;BME280;10722;51.910;8.352;2023-05-15T06:55:45;100465.56;;;14.28;98.30
21129;BME280;10722;51.910;8.352;2023-05-15T06:58:30;100462.97;;;14.22;97.57
21129;BME280;10722;51.910;8.352;2023-05-15T07:01:15;100475.09;;;13.68;98.95
21129;BME280;10722;51.910;8.352;2023-05-15T07:04:01;100489.84;;;13.90;100.00
21129;BME280;10722;51.910;8.352;2023-05-15T07:06:46;100471.66;;;13.63;98.32
21129;BME280;10722;51.910;8.352;2023-05-15T07:09:31;100478.53;;;13.44;99.14
21129;BME280;10722;51.910;8.352;2023-05-15T07:12:16;100478.56;;;13.67;97.76
21129;BME280;10722;51.910;8.352;2023-05-15T07:15:02;100460.38;;;13.90;96.44
21129;BME280;10722;51.910;8.352;2023-05-15T07:17:47;100466.41;;;14.27;96.49
21129;BME280;10722;51.910;8.352;2023-05-15T07:20:33;100450.81;;;14.15;95.61
21129;BME280;10722;51.910;8.352;2023-05-15T07:23:19;100465.53;;;14.30;96.22
21129;BME280;10722;51.910;8.352;2023-05-15T07:26:04;100463.78;;;14.56;95.59
21129;BME280;10722;51.910;8.352;2023-05-15T07:28:52;100429.06;;;14.44;93.69
21129;BME280;10722;51.910;8.352;2023-05-15T07:31:38;100437.75;;;14.55;93.80
21129;BME280;10722;51.910;8.352;2023-05-15T07:34:23;100430.63;;;14.94;92.71
21129;BME280;10722;51.910;8.352;2023-05-15T07:37:08;100432.16;;;15.30;92.40
21129;BME280;10722;51.910;8.352;2023-05-15T07:39:53;100419.94;;;15.41;90.86
21129;BME280;10722;51.910;8.352;2023-05-15T07:42:38;100427.56;;;15.66;90.80
21129;BME280;10722;51.910;8.352;2023-05-15T07:45:24;100428.44;;;15.68;90.52
21129;BME280;10722;51.910;8.352;2023-05-15T07:48:13;100420.84;;;15.31;90.04
21129;BME280;10722;51.910;8.352;2023-05-15T07:50:59;100435.50;;;15.52;90.71
21129;BME280;10722;51.910;8.352;2023-05-15T07:53:44;100436.13;;;15.85;90.05
21129;BME280;10722;51.910;8.352;2023-05-15T07:56:29;100438.72;;;15.86;90.30
21129;BME280;10722;51.910;8.352;2023-05-15T07:59:15;100426.09;;;16.33;89.58
21129;BME280;10722;51.910;8.352;2023-05-15T08:02:00;100417.66;;;16.87;88.48
21129;BME280;10722;51.910;8.352;2023-05-15T08:04:46;100402.97;;;17.37;86.19
21129;BME280;10722;51.910;8.352;2023-05-15T08:07:31;100366.72;;;17.68;83.54
21129;BME280;10722;51.910;8.352;2023-05-15T08:10:16;100328.63;;;17.55;80.75
21129;BME280;10722;51.910;8.352;2023-05-15T08:13:01;100361.28;;;16.66;82.88
21129;BME280;10722;51.910;8.352;2023-05-15T08:15:47;100399.63;;;17.29;84.86
21129;BME280;10722;51.910;8.352;2023-05-15T08:18:32;100377.41;;;17.57;83.48
21129;BME280;10722;51.910;8.352;2023-05-15T08:21:18;100366.88;;;17.59;82.26
21129;BME280;10722;51.910;8.352;2023-05-15T08:24:03;100328.72;;;17.48;80.32
21129;BME280;10722;51.910;8.352;2023-05-15T08:26:49;100372.50;;;17.37;82.21
21129;BME280;10722;51.910;8.352;2023-05-15T08:29:34;100381.81;;;16.96;83.01
21129;BME280;10722;51.910;8.352;2023-05-15T08:32:23;100405.75;;;17.29;83.91
21129;BME280;10722;51.910;8.352;2023-05-15T08:35:09;100412.16;;;17.07;84.21
21129;BME280;10722;51.910;8.352;2023-05-15T08:37:54;100429.97;;;16.72;86.37
21129;BME280;10722;51.910;8.352;2023-05-15T08:40:40;100450.75;;;16.01;88.58
21129;BME280;10722;51.910;8.352;2023-05-15T08:43:30;100463.06;;;15.87;90.68
21129;BME280;10722;51.910;8.352;2023-05-15T08:46:17;100472.34;;;16.20;91.18
21129;BME280;10722;51.910;8.352;2023-05-15T08:49:50;100469.16;;;16.78;91.37
21129;BME280;10722;51.910;8.352;2023-05-15T08:52:13;100452.34;;;16.98;89.42
21129;BME280;10722;51.910;8.352;2023-05-15T08:55:00;100431.09;;;17.24;87.73
21129;BME280;10722;51.910;8.352;2023-05-15T08:57:46;100432.53;;;17.43;87.58
21129;BME280;10722;51.910;8.352;2023-05-15T09:00:32;100413.41;;;16.78;86.24
21129;BME280;10722;51.910;8.352;2023-05-15T09:03:18;100408.31;;;17.31;85.44
21129;BME280;10722;51.910;8.352;2023-05-15T09:06:04;100405.88;;;18.24;84.37
21129;BME280;10722;51.910;8.352;2023-05-15T09:08:51;100373.72;;;18.60;82.43
21129;BME280;10722;51.910;8.352;2023-05-15T09:11:43;100331.78;;;18.62;79.54
21129;BME280;10722;51.910;8.352;2023-05-15T09:14:29;100320.63;;;18.93;78.77
21129;BME280;10722;51.910;8.352;2023-05-15T09:17:14;100316.97;;;19.00;77.73
21129;BME280;10722;51.910;8.352;2023-05-15T09:20:01;100304.44;;;18.75;76.24
21129;BME280;10722;51.910;8.352;2023-05-15T09:22:46;100331.75;;;18.22;77.99
21129;BME280;10722;51.910;8.352;2023-05-15T09:25:31;100360.91;;;18.89;78.83
21129;BME280;10722;51.910;8.352;2023-05-15T09:28:28;100311.25;;;19.54;75.59
21129;BME280;10722;51.910;8.352;2023-05-15T09:31:13;100316.13;;;20.02;74.26
21129;BME280;10722;51.910;8.352;2023-05-15T09:34:02;100256.63;;;19.70;70.93
21129;BME280;10722;51.910;8.352;2023-05-15T09:36:48;100296.94;;;18.58;73.57
21129;BME280;10722;51.910;8.352;2023-05-15T09:39:40;100364.03;;;19.42;75.80
21129;BME280;10722;51.910;8.352;2023-05-15T09:42:25;100303.34;;;19.21;73.76
21129;BME280;10722;51.910;8.352;2023-05-15T09:45:16;100390.19;;;18.67;78.11
21129;BME280;10722;51.910;8.352;2023-05-15T09:48:05;100366.66;;;19.42;76.16
21129;BME280;10722;51.910;8.352;2023-05-15T09:50:51;100307.06;;;19.47;72.71
21129;BME280;10722;51.910;8.352;2023-05-15T09:53:36;100327.28;;;19.78;73.21
21129;BME280;10722;51.910;8.352;2023-05-15T09:56:21;100316.84;;;20.07;72.34
21129;BME280;10722;51.910;8.352;2023-05-15T09:59:12;100318.50;;;20.10;72.29
21129;BME280;10722;51.910;8.352;2023-05-15T10:01:57;100317.78;;;20.36;71.82
21129;BME280;10722;51.910;8.352;2023-05-15T10:04:42;100314.75;;;20.50;71.32
21129;BME280;10722;51.910;8.352;2023-05-15T10:07:29;100270.34;;;20.41;69.22
21129;BME280;10722;51.910;8.352;2023-05-15T10:10:15;100251.53;;;19.97;68.48
21129;BME280;10722;51.910;8.352;2023-05-15T10:13:00;100330.06;;;18.59;73.64
21129;BME280;10722;51.910;8.352;2023-05-15T10:15:45;100360.13;;;19.22;74.62
21129;BME280;10722;51.910;8.352;2023-05-15T10:18:32;100347.94;;;19.56;73.70
21129;BME280;10722;51.910;8.352;2023-05-15T10:21:20;100335.38;;;20.01;72.83
21129;BME280;10722;51.910;8.352;2023-05-15T10:24:07;100306.81;;;19.56;71.70
21129;BME280;10722;51.910;8.352;2023-05-15T10:26:53;100339.13;;;18.87;73.96
21129;BME280;10722;51.910;8.352;2023-05-15T10:29:39;100367.06;;;18.01;76.91
21129;BME280;10722;51.910;8.352;2023-05-15T10:32:24;100406.31;;;18.02;79.32
21129;BME280;10722;51.910;8.352;2023-05-15T10:35:10;100421.56;;;18.25;80.63
21129;BME280;10722;51.910;8.352;2023-05-15T10:37:56;100413.56;;;19.18;79.15
21129;BME280;10722;51.910;8.352;2023-05-15T10:40:42;100355.59;;;18.50;76.05
21129;BME280;10722;51.910;8.352;2023-05-15T10:43:29;100409.38;;;17.75;80.51
21129;BME280;10722;51.910;8.352;2023-05-15T10:46:15;100412.06;;;18.65;79.76
21129;BME280;10722;51.910;8.352;2023-05-15T10:49:04;100401.19;;;19.23;78.10
21129;BME280;10722;51.910;8.352;2023-05-15T10:51:51;100342.22;;;19.40;75.23
21129;BME280;10722;51.910;8.352;2023-05-15T10:54:36;100331.09;;;19.30;73.96
21129;BME280;10722;51.910;8.352;2023-05-15T10:57:22;100345.56;;;20.13;74.11
21129;BME280;10722;51.910;8.352;2023-05-15T11:03:12;100299.91;;;20.77;70.50
21129;BME280;10722;51.910;8.352;2023-05-15T11:06:11;100284.69;;;20.30;69.66
21129;BME280;10722;51.910;8.352;2023-05-15T11:12:10;100328.91;;;20.75;71.77
21129;BME280;10722;51.910;8.352;2023-05-15T11:18:01;100281.16;;;20.89;68.90
21129;BME280;10722;51.910;8.352;2023-05-15T11:23:39;100262.69;;;19.72;68.89
21129;BME280;10722;51.910;8.352;2023-05-15T11:26:33;100331.84;;;19.71;72.55
21129;BME280;10722;51.910;8.352;2023-05-15T11:29:18;100283.94;;;20.55;68.92
21129;BME280;10722;51.910;8.352;2023-05-15T11:32:40;100264.69;;;20.82;68.05
21129;BME280;10722;51.910;8.352;2023-05-15T11:35:31;100275.81;;;20.03;69.83
21129;BME280;10722;51.910;8.352;2023-05-15T11:38:18;100247.03;;;20.00;68.34
21129;BME280;10722;51.910;8.352;2023-05-15T11:41:19;100261.00;;;20.62;68.18
21129;BME280;10722;51.910;8.352;2023-05-15T11:44:04;100242.19;;;19.86;67.82
21129;BME280;10722;51.910;8.352;2023-05-15T11:46:50;100247.31;;;19.91;68.23
21129;BME280;10722;51.910;8.352;2023-05-15T11:49:36;100252.84;;;20.11;68.59
21129;BME280;10722;51.910;8.352;2023-05-15T11:52:23;100253.59;;;20.45;68.27
21129;BME280;10722;51.910;8.352;2023-05-15T11:55:09;100232.59;;;20.43;67.27
21129;BME280;10722;51.910;8.352;2023-05-15T11:57:54;100237.50;;;21.10;66.52
21129;BME280;10722;51.910;8.352;2023-05-15T12:00:44;100179.13;;;21.74;63.15
21129;BME280;10722;51.910;8.352;2023-05-15T12:03:33;100177.63;;;22.14;62.30
21129;BME280;10722;51.910;8.352;2023-05-15T12:06:18;100109.75;;;21.75;59.72
21129;BME280;10722;51.910;8.352;2023-05-15T12:09:04;100151.00;;;21.98;60.98
21129;BME280;10722;51.910;8.352;2023-05-15T12:11:51;100133.53;;;21.96;60.21
21129;BME280;10722;51.910;8.352;2023-05-15T12:14:38;100126.00;;;21.14;60.14
21129;BME280;10722;51.910;8.352;2023-05-15T12:17:23;100149.75;;;21.38;60.27
21129;BME280;10722;51.910;8.352;2023-05-15T12:20:18;100169.94;;;21.12;61.71
21129;BME280;10722;51.910;8.352;2023-05-15T12:23:04;100159.50;;;20.84;61.77
21129;BME280;10722;51.910;8.352;2023-05-15T12:25:51;100174.16;;;21.16;61.64
21129;BME280;10722;51.910;8.352;2023-05-15T12:28:37;100202.38;;;21.86;62.23
21129;BME280;10722;51.910;8.352;2023-05-15T12:31:23;100172.84;;;21.03;61.94
21129;BME280;10722;51.910;8.352;2023-05-15T12:34:09;100194.09;;;21.96;61.81
21129;BME280;10722;51.910;8.352;2023-05-15T12:36:54;100185.25;;;22.66;60.71
21129;BME280;10722;51.910;8.352;2023-05-15T12:39:59;100144.69;;;21.07;61.18
21129;BME280;10722;51.910;8.352;2023-05-15T12:42:44;100190.69;;;20.95;63.50
21129;BME280;10722;51.910;8.352;2023-05-15T12:45:30;100166.75;;;21.02;62.48
21129;BME280;10722;51.910;8.352;2023-05-15T12:48:15;100195.19;;;21.43;63.57
21129;BME280;10722;51.910;8.352;2023-05-15T12:51:05;100171.91;;;22.03;61.03
21129;BME280;10722;51.910;8.352;2023-05-15T12:53:53;100129.34;;;21.44;60.59
21129;BME280;10722;51.910;8.352;2023-05-15T12:56:39;100158.91;;;21.51;61.95
21129;BME280;10722;51.910;8.352;2023-05-15T12:59:24;100157.16;;;21.52;61.62
21129;BME280;10722;51.910;8.352;2023-05-15T13:02:11;100184.38;;;21.98;62.37
21129;BME280;10722;51.910;8.352;2023-05-15T13:04:56;100152.88;;;22.62;60.00
21129;BME280;10722;51.910;8.352;2023-05-15T13:07:42;100100.03;;;22.65;57.65
21129;BME280;10722;51.910;8.352;2023-05-15T13:10:30;100071.41;;;22.76;56.00
21129;BME280;10722;51.910;8.352;2023-05-15T13:13:16;100032.47;;;22.63;54.11
21129;BME280;10722;51.910;8.352;2023-05-15T13:16:02;100077.66;;;22.94;55.48
21129;BME280;10722;51.910;8.352;2023-05-15T13:18:47;100072.81;;;22.65;56.03
21129;BME280;10722;51.910;8.352;2023-05-15T13:21:33;100092.78;;;22.50;56.80
21129;BME280;10722;51.910;8.352;2023-05-15T13:24:22;100080.63;;;22.46;56.79
21129;BME280;10722;51.910;8.352;2023-05-15T13:27:07;100080.28;;;22.33;56.77
21129;BME280;10722;51.910;8.352;2023-05-15T13:29:52;100107.38;;;21.69;58.85
21129;BME280;10722;51.910;8.352;2023-05-15T13:32:37;100108.19;;;21.71;58.41
21129;BME280;10722;51.910;8.352;2023-05-15T13:35:22;100103.25;;;21.38;59.39
21129;BME280;10722;51.910;8.352;2023-05-15T13:38:08;100082.47;;;21.05;58.78
21129;BME280;10722;51.910;8.352;2023-05-15T13:40:56;100074.28;;;20.90;57.91
21129;BME280;10722;51.910;8.352;2023-05-15T13:43:41;100094.63;;;20.85;59.11
21129;BME280;10722;51.910;8.352;2023-05-15T13:46:26;100139.16;;;21.14;61.03
21129;BME280;10722;51.910;8.352;2023-05-15T13:49:12;100133.91;;;21.39;60.12
21129;BME280;10722;51.910;8.352;2023-05-15T13:51:57;100098.19;;;21.32;58.67
21129;BME280;10722;51.910;8.352;2023-05-15T13:54:42;100076.31;;;21.07;58.03
21129;BME280;10722;51.910;8.352;2023-05-15T13:57:28;100095.31;;;21.15;58.18
21129;BME280;10722;51.910;8.352;2023-05-15T14:00:14;100131.56;;;21.30;60.38
21129;BME280;10722;51.910;8.352;2023-05-15T14:02:59;100097.53;;;21.25;58.75
21129;BME280;10722;51.910;8.352;2023-05-15T14:05:45;100047.63;;;21.24;56.63
21129;BME280;10722;51.910;8.352;2023-05-15T14:08:30;100065.34;;;20.95;57.69
21129;BME280;10722;51.910;8.352;2023-05-15T14:11:14;100085.50;;;20.70;58.76
21129;BME280;10722;51.910;8.352;2023-05-15T14:13:59;100110.66;;;20.77;59.34
21129;BME280;10722;51.910;8.352;2023-05-15T14:16:44;100077.72;;;20.67;58.29
21129;BME280;10722;51.910;8.352;2023-05-15T14:19:30;100068.38;;;20.83;57.72
21129;BME280;10722;51.910;8.352;2023-05-15T14:22:16;100026.66;;;20.74;55.42
21129;BME280;10722;51.910;8.352;2023-05-15T14:25:02;100006.06;;;20.62;54.84
21129;BME280;10722;51.910;8.352;2023-05-15T14:27:48;100007.06;;;20.57;54.93
21129;BME280;10722;51.910;8.352;2023-05-15T14:30:34;100018.50;;;20.56;55.63
21129;BME280;10722;51.910;8.352;2023-05-15T14:33:19;100038.19;;;20.70;56.14
21129;BME280;10722;51.910;8.352;2023-05-15T14:36:05;100019.25;;;20.85;54.89
21129;BME280;10722;51.910;8.352;2023-05-15T14:38:51;100038.19;;;20.95;55.54
21129;BME280;10722;51.910;8.352;2023-05-15T14:41:36;100011.94;;;20.93;54.63
21129;BME280;10722;51.910;8.352;2023-05-15T14:44:21;100042.13;;;21.07;55.81
21129;BME280;10722;51.910;8.352;2023-05-15T14:47:10;100028.75;;;20.89;55.20
21129;BME280;10722;51.910;8.352;2023-05-15T14:49:56;100046.84;;;20.97;56.21
21129;BME280;10722;51.910;8.352;2023-05-15T14:52:41;100038.34;;;20.90;56.23
21129;BME280;10722;51.910;8.352;2023-05-15T14:55:26;100055.44;;;21.02;56.53